Time;durP1;ratioP1;P1;durP2;ratioP2;P2;SDS_P1;SDS_P2;PMS_P1;PMS_P2;Temp;Humidity;BMP_temperature;BMP_pressure;BME280_temperature;BME280_humidity;BME280_pressure;Samples;Min_cycle;Max_cycle;Signal;HPM_P1;HPM_P2
2024/04/06 00:00:14;;;;;;;;;9.00;9.00;;;;;26.36;30.37;101462.00;243563;1183;58365;-60
2024/04/06 00:05:37;;;;;;;;;8.00;8.00;;;;;26.39;30.28;101455.73;243284;1183;73138;-60
2024/04/06 00:10:40;;;;;;;;;10.67;9.00;;;;;26.40;30.26;101461.95;243092;1183;58550;-57
2024/04/06 00:15:49;;;;;;;;;9.00;9.00;;;;;26.41;30.29;101464.35;243267;1179;58547;-59
2024/04/06 00:21:03;;;;;;;;;8.00;8.00;;;;;26.41;30.20;101463.48;243882;1184;71822;-60
2024/04/06 00:26:40;;;;;;;;;7.00;7.00;;;;;26.41;30.21;101465.89;243909;1180;73393;-59
2024/04/06 00:32:15;;;;;;;;;7.00;7.00;;;;;26.41;30.22;101464.96;243679;1183;73553;-60
2024/04/06 00:37:33;;;;;;;;;8.00;8.00;;;;;26.40;30.14;101458.73;243707;1183;73564;-60
2024/04/06 00:43:08;;;;;;;;;10.00;9.00;;;;;26.39;30.14;101456.83;244268;1183;72071;-57
2024/04/06 00:48:15;;;;;;;;;6.50;6.50;;;;;26.39;30.30;101459.83;243619;1183;74174;-60
2024/04/06 00:53:52;;;;;;;;;10.00;8.00;;;;;26.38;30.16;101453.05;243844;1179;73143;-58
2024/04/06 00:58:59;;;;;;;;;9.00;8.00;;;;;26.38;30.41;101453.59;243615;1183;73826;-58
2024/04/06 01:04:04;;;;;;;;;8.33;8.33;;;;;26.37;30.18;101460.39;244354;1183;75397;-59
2024/04/06 01:09:20;;;;;;;;;8.50;8.50;;;;;26.36;30.38;101453.05;242711;1183;73754;-60
2024/04/06 01:14:55;;;;;;;;;7.00;7.00;;;;;26.37;30.30;101449.39;244023;1180;73331;-60
2024/04/06 01:20:08;;;;;;;;;7.50;7.50;;;;;26.37;30.27;101452.09;243764;1184;72683;-60
2024/04/06 01:25:17;;;;;;;;;7.00;7.00;;;;;26.35;30.33;101448.98;244009;1186;72412;-58
2024/04/06 01:30:24;;;;;;;;;8.00;8.00;;;;;26.35;30.26;101451.59;243761;1183;72672;-58
2024/04/06 01:35:26;;;;;;;;;7.67;7.67;;;;;26.35;30.38;101454.77;243719;1183;58419;-59
2024/04/06 01:40:31;;;;;;;;;9.33;9.33;;;;;26.34;30.28;101457.64;244039;1184;58649;-59
2024/04/06 01:45:34;;;;;;;;;7.00;7.00;;;;;26.33;30.46;101462.38;243831;1179;73488;-59
2024/04/06 01:50:36;;;;;;;;;8.00;8.00;;;;;26.33;30.44;101472.09;243483;1179;58392;-59
2024/04/06 01:55:46;;;;;;;;;9.00;8.00;;;;;26.32;30.36;101479.91;243607;1183;58408;-60
2024/04/06 02:00:51;;;;;;;;;8.00;8.00;;;;;26.31;30.54;101471.98;243679;1179;73589;-58
2024/04/06 02:06:04;;;;;;;;;8.00;8.00;;;;;26.31;30.22;101464.31;242763;1183;73874;-58
2024/04/06 02:11:21;;;;;;;;;9.00;9.00;;;;;26.31;30.41;101460.52;243770;1183;73644;-57
2024/04/06 02:16:24;;;;;;;;;8.00;8.00;;;;;26.30;30.52;101456.59;243610;1183;73742;-58
2024/04/06 02:22:07;;;;;;;;;7.67;7.67;;;;;26.29;30.51;101459.25;243676;1179;58660;-60
2024/04/06 02:27:41;;;;;;;;;9.67;8.00;;;;;26.29;30.46;101453.60;242844;1180;72751;-59
2024/04/06 02:32:44;;;;;;;;;8.00;8.00;;;;;26.28;30.56;101445.67;243056;1179;58453;-58
2024/04/06 02:37:53;;;;;;;;;8.00;8.00;;;;;26.28;30.51;101445.83;243430;1179;58374;-58
2024/04/06 02:43:28;;;;;;;;;7.00;7.00;;;;;26.27;30.46;101446.13;243065;1183;73452;-60
2024/04/06 02:48:34;;;;;;;;;8.00;8.00;;;;;26.26;30.49;101446.60;243640;1183;73116;-57
2024/04/06 02:54:08;;;;;;;;;6.33;6.33;;;;;26.25;30.46;101441.04;244040;1179;72837;-58
2024/04/06 02:59:14;;;;;;;;;9.00;9.00;;;;;26.24;30.65;101440.45;243642;1183;73520;-60
2024/04/06 03:04:50;;;;;;;;;9.00;9.00;;;;;26.23;30.58;101433.75;243849;1183;73776;-58
2024/04/06 03:11:00;;;;;;;;;9.00;9.00;;;;;26.23;30.58;101433.25;244864;1184;73120;-60
2024/04/06 03:16:11;;;;;;;;;10.00;10.00;;;;;26.23;30.58;101431.70;243338;1179;74580;-58
2024/04/06 03:21:25;;;;;;;;;8.00;8.00;;;;;26.22;30.50;101434.57;244114;1184;73891;-59
2024/04/06 03:27:09;;;;;;;;;7.00;7.00;;;;;26.21;30.50;101433.35;243955;1179;73023;-58
2024/04/06 03:32:21;;;;;;;;;8.00;8.00;;;;;26.21;30.52;101438.93;243931;1183;73486;-59
2024/04/06 03:37:57;;;;;;;;;8.00;8.00;;;;;26.20;30.57;101438.42;244262;1179;72867;-59
2024/04/06 03:43:00;;;;;;;;;7.50;7.50;;;;;26.20;30.51;101441.55;243869;1183;73269;-56
2024/04/06 03:48:13;;;;;;;;;8.75;8.00;;;;;26.20;30.72;101443.99;244103;1179;58761;-58
2024/04/06 03:53:36;;;;;;;;;8.50;7.75;;;;;26.19;30.46;101451.47;244071;1179;73495;-60
2024/04/06 03:59:11;;;;;;;;;10.00;10.00;;;;;26.20;30.59;101449.70;244029;1184;74109;-60
2024/04/06 04:04:23;;;;;;;;;8.00;8.00;;;;;26.19;30.59;101452.86;243613;1180;72834;-58
2024/04/06 04:10:00;;;;;;;;;9.00;9.00;;;;;26.19;30.69;101458.51;243966;1179;73328;-60
2024/04/06 04:15:07;;;;;;;;;9.00;9.00;;;;;26.19;30.37;101456.91;243377;1184;72304;-59
2024/04/06 04:20:15;;;;;;;;;8.50;8.50;;;;;26.19;30.46;101460.38;244138;1191;73926;-58
2024/04/06 04:25:57;;;;;;;;;8.25;8.25;;;;;26.19;30.56;101456.10;243869;1178;73072;-59
2024/04/06 04:31:13;;;;;;;;;8.25;8.00;;;;;26.20;30.52;101455.89;243585;1184;74064;-59
2024/04/06 04:36:16;;;;;;;;;9.25;8.25;;;;;26.21;30.47;101462.95;243686;1183;73699;-58
2024/04/06 04:41:19;;;;;;;;;8.00;8.00;;;;;26.21;30.51;101467.70;243915;1179;58412;-59
2024/04/06 04:46:22;;;;;;;;;7.00;7.00;;;;;26.22;30.46;101474.95;243517;1179;58500;-59
2024/04/06 04:51:33;;;;;;;;;8.33;8.33;;;;;26.22;30.36;101470.89;243930;1180;58435;-60
2024/04/06 04:57:08;;;;;;;;;8.00;8.00;;;;;26.22;30.52;101480.38;244260;1183;73645;-58
2024/04/06 05:02:23;;;;;;;;;8.00;8.00;;;;;26.23;30.44;101482.48;243707;1181;73127;-58
2024/04/06 05:07:58;;;;;;;;;8.33;7.33;;;;;26.23;30.50;101480.03;244182;1184;72289;-58
2024/04/06 05:13:08;;;;;;;;;9.00;7.25;;;;;26.24;30.48;101477.75;244027;1181;73333;-60
2024/04/06 05:18:23;;;;;;;;;9.00;9.00;;;;;26.24;30.36;101466.40;244183;1180;73858;-59
2024/04/06 05:24:04;;;;;;;;;8.00;8.00;;;;;26.25;30.41;101460.19;243881;1184;72710;-60
2024/04/06 05:29:16;;;;;;;;;10.00;9.00;;;;;26.27;30.51;101465.98;243725;1179;73250;-59
2024/04/06 05:34:51;;;;;;;;;9.00;9.00;;;;;26.27;30.18;101471.98;243714;1184;72758;-60
2024/04/06 05:39:55;;;;;;;;;8.00;8.00;;;;;26.28;30.38;101468.42;243518;1179;74062;-60
2024/04/06 05:45:30;;;;;;;;;8.00;8.00;;;;;26.28;30.14;101463.33;243865;1184;73729;-59
2024/04/06 05:50:45;;;;;;;;;7.33;7.33;;;;;26.28;30.44;101475.93;243236;1184;73195;-57
2024/04/06 05:55:51;;;;;;;;;8.00;8.00;;;;;26.29;30.17;101481.74;244218;1184;74578;-58
2024/04/06 06:01:08;;;;;;;;;8.00;8.00;;;;;26.29;30.45;101481.95;244180;1183;74187;-59
2024/04/06 06:06:50;;;;;;;;;7.00;7.00;;;;;26.30;30.20;101476.17;244081;1182;74058;-57
2024/04/06 06:12:02;;;;;;;;;8.00;8.00;;;;;26.31;30.30;101483.45;243928;1182;75897;-60
2024/04/06 06:17:37;;;;;;;;;10.33;9.00;;;;;26.33;30.30;101484.87;243886;1179;74545;-58
2024/04/06 06:22:40;;;;;;;;;8.50;8.50;;;;;26.34;30.23;101484.02;243916;1182;73726;-59
2024/04/06 06:27:43;;;;;;;;;8.00;8.00;;;;;26.36;30.30;101483.70;243545;1179;58367;-58
2024/04/06 06:32:49;;;;;;;;;9.33;9.33;;;;;26.37;30.36;101488.45;243431;1179;72624;-58
2024/04/06 06:38:23;;;;;;;;;8.00;8.00;;;;;26.39;30.23;101492.82;243722;1179;58811;-59
2024/04/06 06:43:36;;;;;;;;;8.33;8.33;;;;;26.42;30.17;101496.27;243369;1179;72726;-60
2024/04/06 06:49:06;;;;;;;;;8.00;8.00;;;;;26.45;30.06;101508.78;243262;1183;74103;-59
2024/04/06 06:54:15;;;;;;;;;8.67;8.67;;;;;26.49;30.02;101514.68;244076;1183;74123;-58
2024/04/06 07:00:06;;;;;;;;;8.00;8.00;;;;;26.50;30.21;101513.20;243673;1183;74019;-59
2024/04/06 07:05:13;;;;;;;;;9.00;8.00;;;;;26.54;30.17;101516.33;243765;1184;73606;-60
2024/04/06 07:10:47;;;;;;;;;8.00;8.00;;;;;26.56;30.14;101514.91;243857;1181;73713;-57
2024/04/06 07:16:25;;;;;;;;;10.00;10.00;;;;;26.57;30.17;101507.42;244321;1183;74320;-60
2024/04/06 07:21:29;;;;;;;;;9.33;9.33;;;;;26.60;29.97;101504.15;244413;1182;73651;-60
2024/04/06 07:26:40;;;;;;;;;10.50;10.50;;;;;26.61;30.26;101501.13;243218;1183;74456;-58
2024/04/06 07:32:03;;;;;;;;;9.00;8.00;;;;;26.65;30.18;101496.77;243893;1182;73118;-59
2024/04/06 07:37:42;;;;;;;;;10.50;10.50;;;;;26.67;29.99;101495.69;244214;1182;73919;-59
2024/04/06 07:42:53;;;;;;;;;9.00;9.00;;;;;26.70;30.07;101489.92;243380;1179;73396;-59
2024/04/06 07:48:27;;;;;;;;;9.00;9.00;;;;;26.73;30.01;101486.67;244034;1180;74269;-60
2024/04/06 07:53:48;;;;;;;;;8.00;8.00;;;;;26.77;29.92;101478.77;243707;1183;73147;-59
2024/04/06 07:58:55;;;;;;;;;8.00;8.00;;;;;26.81;30.00;101476.98;243896;1179;74479;-59
2024/04/06 08:04:16;;;;;;;;;8.50;8.00;;;;;26.84;29.77;101485.27;244213;1182;73240;-58
2024/04/06 08:09:58;;;;;;;;;7.00;7.00;;;;;26.87;29.89;101482.33;243981;1182;73056;-59
2024/04/06 08:15:34;;;;;;;;;9.50;9.50;;;;;26.90;29.89;101487.27;244303;1178;73819;-59
2024/04/06 08:20:42;;;;;;;;;9.50;8.00;;;;;26.90;29.71;101479.52;241542;1179;73465;-58
2024/04/06 08:25:53;;;;;;;;;8.00;8.00;;;;;26.77;30.00;101480.08;243195;1183;74093;-59
2024/04/06 08:31:08;;;;;;;;;8.00;7.00;;;;;26.86;29.73;101474.95;243468;1181;73468;-60
2024/04/06 08:36:44;;;;;;;;;8.25;8.25;;;;;26.93;29.70;101471.98;244087;1182;73014;-58
2024/04/06 08:41:59;;;;;;;;;10.00;8.00;;;;;26.98;29.50;101477.27;243179;1179;73261;-58
2024/04/06 08:47:05;;;;;;;;;8.75;8.75;;;;;27.00;29.65;101473.54;243978;1178;73288;-58
2024/04/06 08:52:36;;;;;;;;;8.00;8.00;;;;;26.99;29.43;101473.67;243828;1181;73518;-59
2024/04/06 08:58:10;;;;;;;;;9.00;9.00;;;;;26.98;29.48;101474.09;243898;1180;73340;-59
2024/04/06 09:03:14;;;;;;;;;8.00;8.00;;;;;26.98;29.57;101464.80;243705;1182;74194;-59
2024/04/06 09:08:53;;;;;;;;;8.67;8.67;;;;;26.99;29.48;101460.07;243786;1183;73071;-58
2024/04/06 09:14:04;;;;;;;;;7.00;7.00;;;;;27.02;29.42;101448.76;243801;1182;72820;-59
2024/04/06 09:19:38;;;;;;;;;7.67;7.67;;;;;27.05;29.45;101441.11;243729;1179;73176;-57
2024/04/06 09:24:54;;;;;;;;;9.00;9.00;;;;;27.07;29.43;101431.79;243513;1183;73974;-60
2024/04/06 09:30:35;;;;;;;;;9.00;9.00;;;;;27.08;29.35;101418.64;243796;1179;73911;-59
2024/04/06 09:35:39;;;;;;;;;10.25;10.00;;;;;27.09;29.45;101426.76;243770;1182;73400;-58
2024/04/06 09:41:17;;;;;;;;;8.67;8.67;;;;;27.10;29.24;101414.20;243749;1183;74017;-57
2024/04/06 09:46:20;;;;;;;;;8.50;8.50;;;;;27.13;29.14;101409.67;243678;1182;73362;-59
2024/04/06 09:51:23;;;;;;;;;8.00;8.00;;;;;27.17;29.13;101402.30;244139;1184;73684;-59
2024/04/06 09:56:26;;;;;;;;;8.33;8.33;;;;;27.23;28.97;101398.77;243826;1182;58391;-60
2024/04/06 10:01:31;;;;;;;;;8.00;8.00;;;;;27.28;28.71;101393.58;243742;1179;58260;-58
2024/04/06 10:06:41;;;;;;;;;9.00;9.00;;;;;27.33;28.89;101381.30;244278;1185;73893;-58
2024/04/06 10:12:00;;;;;;;;;9.00;9.00;;;;;27.39;28.70;101379.34;243758;1182;73277;-59
2024/04/06 10:17:10;;;;;;;;;7.25;7.25;;;;;27.43;28.60;101373.95;243272;1181;73841;-59
2024/04/06 10:22:25;;;;;;;;;8.00;8.00;;;;;27.46;28.43;101365.46;243973;1181;74676;-58
2024/04/06 10:27:30;;;;;;;;;7.67;7.67;;;;;27.50;28.57;101360.21;244163;1182;73525;-59
2024/04/06 10:32:38;;;;;;;;;10.33;10.33;;;;;27.51;28.28;101351.39;243317;1180;74468;-60
2024/04/06 10:38:13;;;;;;;;;10.00;9.50;;;;;27.51;28.34;101344.92;244203;1178;58880;-59
2024/04/06 10:43:15;;;;;;;;;10.00;10.00;;;;;27.52;28.38;101346.70;243333;1182;72976;-59
2024/04/06 10:48:51;;;;;;;;;9.67;9.67;;;;;27.58;28.14;101338.46;243890;1179;58563;-60
2024/04/06 10:54:03;;;;;;;;;9.67;9.67;;;;;27.67;28.13;101334.34;243495;1182;73389;-57
2024/04/06 10:59:39;;;;;;;;;9.00;9.00;;;;;27.73;28.08;101331.88;244343;1183;74530;-58
2024/04/06 11:04:45;;;;;;;;;8.00;8.00;;;;;27.77;28.05;101327.73;243650;1183;73597;-58
2024/04/06 11:09:53;;;;;;;;;10.00;10.00;;;;;27.75;28.00;101312.04;241064;1177;72928;-59
2024/04/06 11:15:00;;;;;;;;;8.25;8.25;;;;;27.57;28.39;101309.78;243563;1177;73367;-59
2024/04/06 11:20:16;;;;;;;;;8.00;8.00;;;;;27.65;28.25;101304.84;244276;1177;74667;-59
2024/04/06 11:25:23;;;;;;;;;7.00;7.00;;;;;27.69;28.21;101296.08;243851;1183;73888;-59
2024/04/06 11:30:28;;;;;;;;;9.00;9.00;;;;;27.68;28.20;101292.65;243964;1182;58627;-59
2024/04/06 11:35:40;;;;;;;;;8.25;8.25;;;;;27.66;28.25;101279.90;243449;1184;72170;-59
2024/04/06 11:41:15;;;;;;;;;12.00;8.00;;;;;27.63;28.31;101274.23;244167;1177;74047;-59
2024/04/06 11:46:18;;;;;;;;;9.25;9.00;;;;;27.62;28.02;101266.99;243962;1177;73442;-59
2024/04/06 11:51:53;;;;;;;;;9.67;8.00;;;;;27.60;28.17;101262.56;244145;1181;58404;-59
2024/04/06 12:02:47;;;;;;;;;10.00;10.00;;;;;27.51;28.35;101242.97;237700;1199;58074;-57
2024/04/06 12:08:01;;;;;;;;;8.00;7.50;;;;;27.24;28.82;101240.11;239938;1187;72614;-59
2024/04/06 12:13:25;;;;;;;;;8.50;8.50;;;;;27.16;29.11;101231.21;242902;1187;73632;-59
2024/04/06 12:19:01;;;;;;;;;12.00;9.00;;;;;27.28;28.93;101218.41;241237;1187;73047;-60
2024/04/06 12:24:07;;;;;;;;;8.00;7.75;;;;;27.20;29.09;101208.67;242674;1187;72764;-59
2024/04/06 12:29:45;;;;;;;;;9.00;9.00;;;;;27.25;28.74;101206.08;243037;1187;73460;-56
2024/04/06 12:34:49;;;;;;;;;9.00;8.00;;;;;27.28;28.81;101203.19;242671;1187;72620;-58
2024/04/06 12:40:25;;;;;;;;;11.50;11.50;;;;;27.30;28.92;101206.75;242898;1187;72858;-59
2024/04/06 12:51:47;;;;;;;;;9.00;9.00;;;;;27.14;29.10;101193.14;242792;1185;73002;-57
2024/04/06 13:02:48;;;;;;;;;10.00;8.00;;;;;27.26;28.87;101185.73;241825;1189;73757;-59
2024/04/06 13:07:51;;;;;;;;;8.25;8.25;;;;;27.21;28.99;101185.94;240123;1189;73675;-57
2024/04/06 13:12:57;;;;;;;;;7.25;7.25;;;;;26.94;29.48;101187.61;239990;1186;73968;-58
2024/04/06 13:18:00;;;;;;;;;9.25;9.25;;;;;26.83;29.58;101189.25;243650;1187;57538;-58
2024/04/06 13:23:04;;;;;;;;;10.00;10.00;;;;;26.97;29.42;101178.67;243744;1186;57585;-58
2024/04/06 13:28:07;;;;;;;;;9.25;9.25;;;;;27.07;29.21;101173.88;243729;1189;73500;-59
2024/04/06 13:33:10;;;;;;;;;9.67;8.67;;;;;27.11;29.10;101173.26;244541;1182;57530;-59
2024/04/06 13:38:13;;;;;;;;;9.00;9.00;;;;;27.13;29.15;101169.17;244532;1183;57856;-58
2024/04/06 13:43:16;;;;;;;;;10.00;10.00;;;;;27.13;29.30;101167.69;244529;1183;57492;-59
2024/04/06 13:48:18;;;;;;;;;7.67;7.67;;;;;27.12;29.09;101160.58;244443;1182;57727;-59
2024/04/06 13:53:21;;;;;;;;;9.75;9.50;;;;;27.10;28.93;101149.50;244483;1183;57647;-58
2024/04/06 13:58:24;;;;;;;;;7.75;7.75;;;;;27.08;29.19;101142.82;244513;1186;57473;-59
2024/04/06 14:03:27;;;;;;;;;8.33;8.33;;;;;27.07;29.17;101146.16;244560;1180;57435;-58
2024/04/06 14:08:34;;;;;;;;;10.00;9.00;;;;;27.04;29.15;101137.92;244515;1180;57567;-59
2024/04/06 14:13:39;;;;;;;;;7.25;7.25;;;;;27.02;29.15;101134.58;244525;1190;72961;-58
2024/04/06 14:18:42;;;;;;;;;7.50;7.50;;;;;27.00;29.36;101128.02;244562;1180;72989;-59
2024/04/06 14:23:45;;;;;;;;;9.67;9.67;;;;;26.98;29.35;101123.49;244547;1180;57536;-58
2024/04/06 14:28:48;;;;;;;;;7.67;7.67;;;;;26.96;29.47;101118.10;244533;1186;57486;-59
2024/04/06 14:33:51;;;;;;;;;8.00;8.00;;;;;26.95;29.43;101116.14;244508;1181;57450;-59
2024/04/06 14:38:54;;;;;;;;;8.00;8.00;;;;;26.93;29.46;101112.63;244522;1185;57835;-59
2024/04/06 14:43:56;;;;;;;;;9.00;9.00;;;;;26.91;29.47;101111.29;244502;1186;58012;-58
2024/04/06 14:48:59;;;;;;;;;7.00;7.00;;;;;26.89;29.51;101104.92;244701;1180;57481;-60
2024/04/06 14:54:03;;;;;;;;;9.67;9.00;;;;;26.87;29.56;101100.27;244634;1184;57435;-58
2024/04/06 14:59:06;;;;;;;;;9.00;9.00;;;;;26.87;29.70;101092.73;244678;1180;57511;-59
2024/04/06 15:04:08;;;;;;;;;8.00;8.00;;;;;26.85;29.73;101096.16;244708;1186;57597;-59
2024/04/06 15:09:11;;;;;;;;;7.33;7.33;;;;;26.83;29.78;101092.33;244710;1183;57494;-58
2024/04/06 15:14:14;;;;;;;;;8.67;8.67;;;;;26.82;29.81;101083.46;244716;1180;57517;-59
2024/04/06 15:19:17;;;;;;;;;10.00;8.67;;;;;26.80;29.64;101085.02;244751;1180;57514;-59
2024/04/06 15:24:20;;;;;;;;;9.00;9.00;;;;;26.78;29.77;101085.73;244635;1186;92029;-58
2024/04/06 15:29:23;;;;;;;;;9.00;8.00;;;;;26.75;29.79;101080.02;244956;1184;57540;-59
2024/04/06 15:34:26;;;;;;;;;9.00;9.00;;;;;26.74;29.88;101078.14;244585;1185;57485;-59
2024/04/06 15:39:29;;;;;;;;;9.00;9.00;;;;;26.72;29.93;101070.80;244512;1181;57533;-59
2024/04/06 15:44:32;;;;;;;;;9.50;9.50;;;;;26.71;29.78;101067.41;244466;1184;57750;-59
2024/04/06 15:49:34;;;;;;;;;10.50;10.50;;;;;26.69;29.94;101069.34;244535;1180;57763;-58
2024/04/06 15:54:37;;;;;;;;;9.00;9.00;;;;;26.67;30.07;101062.12;244477;1180;57641;-58
2024/04/06 15:59:40;;;;;;;;;9.00;9.00;;;;;26.66;30.02;101061.17;244526;1185;57832;-59
2024/04/06 16:04:43;;;;;;;;;8.67;8.67;;;;;26.65;30.03;101060.17;244500;1185;57577;-59
2024/04/06 16:09:46;;;;;;;;;9.00;9.00;;;;;26.63;30.01;101058.55;244495;1180;57614;-59
2024/04/06 16:14:49;;;;;;;;;9.33;9.33;;;;;26.62;30.06;101058.16;244587;1185;57551;-58
2024/04/06 16:19:52;;;;;;;;;8.25;8.25;;;;;26.61;30.05;101062.36;244489;1180;88289;-59
2024/04/06 16:24:54;;;;;;;;;7.75;7.75;;;;;26.60;30.07;101060.39;244523;1184;57562;-59
2024/04/06 16:29:57;;;;;;;;;9.00;9.00;;;;;26.58;30.08;101062.23;244539;1182;57489;-59
2024/04/06 16:35:00;;;;;;;;;10.00;10.00;;;;;26.57;30.03;101064.25;244520;1180;57484;-59
2024/04/06 16:40:04;;;;;;;;;9.00;9.00;;;;;26.57;30.19;101062.36;244527;1180;57532;-59
2024/04/06 16:45:07;;;;;;;;;9.50;9.00;;;;;26.55;30.04;101063.64;244510;1182;57795;-59
2024/04/06 16:50:10;;;;;;;;;8.75;8.75;;;;;26.54;30.06;101060.88;244514;1185;88571;-58
2024/04/06 16:55:13;;;;;;;;;8.75;8.75;;;;;26.53;30.17;101063.48;244534;1184;89629;-59
2024/04/06 17:00:16;;;;;;;;;10.00;10.00;;;;;26.52;30.20;101067.14;244509;1185;57492;-59
2024/04/06 17:05:19;;;;;;;;;10.33;10.33;;;;;26.51;30.24;101081.28;245252;1185;57823;-59
2024/04/06 17:10:24;;;;;;;;;8.50;8.50;;;;;26.51;30.15;101089.05;245286;1186;88493;-58
2024/04/06 17:15:27;;;;;;;;;9.50;8.50;;;;;26.49;30.48;101114.20;245245;1179;57531;-58
2024/04/06 17:20:30;;;;;;;;;9.25;9.25;;;;;26.48;30.25;101130.09;245254;1185;87858;-58
2024/04/06 17:25:34;;;;;;;;;11.00;10.00;;;;;26.47;30.26;101144.77;244947;1180;57529;-58
2024/04/06 17:30:37;;;;;;;;;11.00;11.00;;;;;26.45;30.36;101181.27;245272;1185;87647;-58
2024/04/06 17:35:40;;;;;;;;;9.00;9.00;;;;;26.44;30.49;101218.02;244969;1185;57455;-58
2024/04/06 17:40:43;;;;;;;;;8.67;8.67;;;;;26.43;30.46;101224.92;245304;1183;57901;-58
2024/04/06 17:45:46;;;;;;;;;9.00;9.00;;;;;26.42;30.64;101232.91;245299;1180;57495;-57
2024/04/06 17:50:49;;;;;;;;;11.00;9.00;;;;;26.42;30.59;101234.59;245243;1180;57448;-58
2024/04/06 17:55:52;;;;;;;;;8.33;8.00;;;;;26.43;30.48;101231.80;245290;1180;57444;-59
2024/04/06 18:00:54;;;;;;;;;9.33;9.33;;;;;26.41;30.68;101230.92;245260;1193;57461;-58
2024/04/06 18:05:57;;;;;;;;;9.00;9.00;;;;;26.40;30.59;101235.62;245256;1180;57494;-58
2024/04/06 18:11:01;;;;;;;;;7.33;7.33;;;;;26.39;30.62;101226.23;245283;1179;57478;-58
2024/04/06 18:16:05;;;;;;;;;9.00;9.00;;;;;26.38;30.61;101230.02;244955;1180;57518;-58
2024/04/06 18:21:08;;;;;;;;;9.33;9.33;;;;;26.37;30.55;101227.14;243149;1179;59222;-57
2024/04/06 18:26:11;;;;;;;;;8.33;8.33;;;;;26.15;31.11;101233.44;241336;1180;58829;-58
2024/04/06 18:31:14;;;;;;;;;8.25;8.25;;;;;25.88;31.66;101222.46;241305;1180;58777;-57
2024/04/06 18:36:17;;;;;;;;;7.75;7.75;;;;;25.81;31.75;101205.65;245332;1187;88105;-58
2024/04/06 18:41:20;;;;;;;;;11.00;10.00;;;;;26.00;31.34;101200.77;245270;1180;57556;-57
2024/04/06 18:46:23;;;;;;;;;9.00;9.00;;;;;26.13;31.34;101206.33;244988;1180;57481;-58
2024/04/06 18:51:26;;;;;;;;;9.00;9.00;;;;;26.19;31.10;101205.16;245270;1180;57764;-59
2024/04/06 18:56:29;;;;;;;;;8.00;8.00;;;;;26.23;31.17;101207.95;245312;1180;57510;-59
2024/04/06 19:01:33;;;;;;;;;9.33;9.33;;;;;26.24;31.05;101210.95;245271;1180;57914;-58
2024/04/06 19:06:35;;;;;;;;;9.00;9.00;;;;;26.26;31.09;101198.99;245236;1179;57500;-58
2024/04/06 19:11:38;;;;;;;;;9.00;9.00;;;;;26.26;31.00;101192.24;245297;1180;57731;-58
2024/04/06 19:16:41;;;;;;;;;8.00;8.00;;;;;26.27;30.97;101200.94;245272;1193;57541;-58
2024/04/06 19:21:47;;;;;;;;;8.25;8.25;;;;;26.26;30.94;101204.11;245282;1185;57528;-59
2024/04/06 19:26:50;;;;;;;;;8.00;8.00;;;;;26.26;30.89;101196.69;245270;1180;87948;-59
2024/04/06 19:31:53;;;;;;;;;8.67;8.33;;;;;26.25;31.04;101188.59;245272;1180;57388;-58
2024/04/06 19:36:56;;;;;;;;;8.00;8.00;;;;;26.25;31.20;101194.29;245261;1185;57500;-57
2024/04/06 19:41:59;;;;;;;;;8.33;8.33;;;;;26.25;30.89;101198.66;245305;1180;57393;-57
2024/04/06 19:47:02;;;;;;;;;10.67;9.00;;;;;26.24;31.10;101196.73;245294;1180;57540;-58
2024/04/06 19:52:05;;;;;;;;;9.67;9.67;;;;;26.23;31.05;101197.44;244934;1182;57800;-59
2024/04/06 19:57:08;;;;;;;;;9.00;9.00;;;;;26.23;31.01;101197.32;244976;1181;57390;-59
2024/04/06 20:02:12;;;;;;;;;9.00;9.00;;;;;26.23;31.06;101204.11;245282;1180;57849;-59
2024/04/06 20:07:14;;;;;;;;;9.00;9.00;;;;;26.22;31.00;101205.41;245261;1180;57435;-58
2024/04/06 20:12:17;;;;;;;;;10.00;10.00;;;;;26.22;31.14;101214.41;245282;1180;57513;-59
2024/04/06 20:17:20;;;;;;;;;10.00;10.00;;;;;26.21;31.20;101207.76;244976;1180;57713;-59
2024/04/06 20:27:44;;;;;;;;;8.75;8.75;;;;;26.20;31.14;101216.33;245285;1186;88788;-58
2024/04/06 20:32:48;;;;;;;;;8.75;8.75;;;;;26.20;31.17;101219.33;245276;1180;58282;-59
2024/04/06 20:37:50;;;;;;;;;9.00;9.00;;;;;26.19;31.28;101220.68;245263;1181;58209;-59
2024/04/06 20:42:54;;;;;;;;;9.00;9.00;;;;;26.19;31.27;101221.29;245299;1180;58617;-58
2024/04/06 20:47:57;;;;;;;;;9.00;9.00;;;;;26.19;31.19;101214.58;245224;1180;58718;-58
2024/04/06 20:53:04;;;;;;;;;9.25;9.25;;;;;26.18;31.30;101210.24;245238;1186;88236;-59
2024/04/06 20:58:07;;;;;;;;;8.00;8.00;;;;;26.17;31.21;101215.54;245001;1185;87939;-58
2024/04/06 21:03:10;;;;;;;;;9.00;9.00;;;;;26.17;31.25;101215.25;245261;1180;58298;-58
2024/04/06 21:08:13;;;;;;;;;8.00;8.00;;;;;26.16;31.42;101212.73;245258;1185;58166;-59
2024/04/06 21:13:15;;;;;;;;;8.00;8.00;;;;;26.16;31.31;101212.09;245269;1180;58244;-59
2024/04/06 21:18:18;;;;;;;;;9.00;9.00;;;;;26.16;31.29;101215.94;245244;1180;58349;-59
2024/04/06 21:23:21;;;;;;;;;7.50;7.50;;;;;26.15;31.25;101212.34;245246;1185;58270;-58
2024/04/06 21:28:24;;;;;;;;;7.00;7.00;;;;;26.14;31.17;101203.16;245264;1183;58270;-59
2024/04/06 21:33:27;;;;;;;;;8.00;8.00;;;;;26.13;31.29;101205.50;245316;1184;58436;-58
2024/04/06 21:38:30;;;;;;;;;7.00;7.00;;;;;26.13;31.24;101213.98;245281;1179;58287;-58
2024/04/06 21:43:32;;;;;;;;;11.50;11.25;;;;;26.13;31.46;101216.23;245283;1182;58233;-58
2024/04/06 21:48:35;;;;;;;;;9.67;8.67;;;;;26.12;31.32;101219.27;245277;1186;90003;-58
2024/04/06 21:53:38;;;;;;;;;9.00;9.00;;;;;26.11;31.37;101208.63;245268;1181;58377;-59
2024/04/06 21:58:44;;;;;;;;;8.00;8.00;;;;;26.11;31.34;101210.31;245269;1180;58284;-59
2024/04/06 22:03:47;;;;;;;;;10.75;9.00;;;;;26.10;31.39;101211.46;245206;1185;90575;-60
2024/04/06 22:08:53;;;;;;;;;8.33;8.33;;;;;26.11;31.30;101241.95;245191;1185;58316;-57
2024/04/06 22:13:56;;;;;;;;;10.00;8.00;;;;;26.10;31.46;101260.24;245200;1180;90642;-59
2024/04/06 22:18:58;;;;;;;;;8.00;8.00;;;;;26.10;31.41;101276.02;245205;1185;58331;-60
2024/04/06 22:24:01;;;;;;;;;9.00;9.00;;;;;26.08;31.50;101216.48;245276;1182;58225;-59
2024/04/06 22:29:04;;;;;;;;;8.00;8.00;;;;;26.05;31.52;101214.69;245306;1180;58347;-58
2024/04/06 22:34:11;;;;;;;;;8.00;8.00;;;;;26.03;31.76;101210.76;245311;1177;58320;-59
2024/04/06 22:39:14;;;;;;;;;8.00;8.00;;;;;26.03;31.68;101214.81;245262;1182;90402;-59
2024/04/06 22:44:19;;;;;;;;;9.00;9.00;;;;;26.04;31.60;101213.56;245296;1183;91191;-60
2024/04/06 22:49:22;;;;;;;;;11.00;9.00;;;;;26.04;31.47;101212.30;245289;1183;91117;-59
2024/04/06 22:54:25;;;;;;;;;7.50;7.50;;;;;26.04;31.43;101220.15;245326;1177;58378;-60
2024/04/06 22:59:28;;;;;;;;;8.33;8.33;;;;;26.04;31.60;101221.58;245284;1185;58261;-59
2024/04/06 23:04:30;;;;;;;;;7.67;7.67;;;;;26.03;31.65;101223.70;245293;1184;58288;-58
2024/04/06 23:09:33;;;;;;;;;9.67;9.67;;;;;26.03;31.55;101234.66;245314;1177;58367;-58
2024/04/06 23:14:36;;;;;;;;;8.00;8.00;;;;;26.03;31.47;101233.45;245294;1183;58345;-60
2024/04/06 23:19:39;;;;;;;;;8.67;8.67;;;;;26.02;31.45;101229.70;245371;1177;58384;-59
2024/04/06 23:24:42;;;;;;;;;9.67;8.00;;;;;26.02;31.50;101234.09;245319;1183;58269;-59
2024/04/06 23:29:45;;;;;;;;;8.00;8.00;;;;;26.02;31.72;101243.38;245356;1177;58272;-60
2024/04/06 23:34:47;;;;;;;;;9.50;9.00;;;;;26.01;31.59;101249.63;245309;1178;73411;-59
2024/04/06 23:39:50;;;;;;;;;8.00;7.00;;;;;26.01;31.61;101251.27;245276;1178;58208;-60
2024/04/06 23:44:54;;;;;;;;;8.00;8.00;;;;;26.01;31.55;101250.00;245306;1178;58314;-59
2024/04/06 23:49:58;;;;;;;;;9.00;9.00;;;;;26.01;31.60;101246.21;245297;1177;58389;-58
2024/04/06 23:55:01;;;;;;;;;9.25;7.00;;;;;26.00;31.50;101242.41;245305;1182;73748;-60
